Brookline, New Hampshire
Current Conditions -  °F | °C
As of 4:52 PM on Monday 26 Jan 2015 (Local Time) from KFIT Reporting Station
Overcast Overcast  
Wind Chill: 11°   Ceiling: 2100
Heat Index: 21°   Visibility: 10mi
Dew Point:   Wind: 9mph
Humidity: 60%   Direction: 20°NNE
Pressure: 30.04"   Gusts: NA
Location:  42.73°N, 71.66°W
Report Text: KFIT 262152Z AUTO 02008KT 10SM BKN021 OVC027 M06/M13 A3004 RMK AO2 SLP180 T10611128
Loading
Personal Weather Stations






























Interactive Weather Map New forecast layout! Learn more

10-Day Weather Forecast

Advertisements
Track Severe Weather on mobile